sensor_id;sensor_type;location;lat;lon;timestamp;P1;durP1;ratioP1;P2;durP2;ratioP2
48524;SDS011;34316;51.514;-0.178;2023-04-29T00:00:45;20.13;;;10.43;;
48524;SDS011;34316;51.514;-0.178;2023-04-29T00:02:47;18.13;;;10.15;;
48524;SDS011;34316;51.514;-0.178;2023-04-29T00:04:49;19.58;;;9.68;;
48524;SDS011;34316;51.514;-0.178;2023-04-29T00:06:52;18.45;;;10.05;;
48524;SDS011;34316;51.514;-0.178;2023-04-29T00:08:54;16.42;;;9.50;;
48524;SDS011;34316;51.514;-0.178;2023-04-29T00:10:56;19.35;;;10.07;;
48524;SDS011;34316;51.514;-0.178;2023-04-29T00:12:57;14.60;;;9.48;;
48524;SDS011;34316;51.514;-0.178;2023-04-29T00:14:59;14.80;;;9.88;;
48524;SDS011;34316;51.514;-0.178;2023-04-29T00:19:05;17.45;;;9.48;;
48524;SDS011;34316;51.514;-0.178;2023-04-29T00:21:07;20.70;;;9.95;;
48524;SDS011;34316;51.514;-0.178;2023-04-29T00:23:08;15.07;;;8.65;;
48524;SDS011;34316;51.514;-0.178;2023-04-29T00:25:11;13.95;;;9.07;;
48524;SDS011;34316;51.514;-0.178;2023-04-29T00:27:13;20.35;;;9.27;;
48524;SDS011;34316;51.514;-0.178;2023-04-29T00:29:14;17.58;;;9.80;;
48524;SDS011;34316;51.514;-0.178;2023-04-29T00:31:16;15.48;;;10.15;;
48524;SDS011;34316;51.514;-0.178;2023-04-29T00:33:18;14.43;;;9.35;;
48524;SDS011;34316;51.514;-0.178;2023-04-29T00:35:20;16.40;;;9.50;;
48524;SDS011;34316;51.514;-0.178;2023-04-29T00:37:22;18.27;;;9.85;;
48524;SDS011;34316;51.514;-0.178;2023-04-29T00:39:23;14.98;;;9.50;;
48524;SDS011;34316;51.514;-0.178;2023-04-29T00:41:25;15.35;;;8.43;;
48524;SDS011;34316;51.514;-0.178;2023-04-29T00:43:27;17.27;;;9.35;;
48524;SDS011;34316;51.514;-0.178;2023-04-29T00:45:29;16.52;;;9.25;;
48524;SDS011;34316;51.514;-0.178;2023-04-29T00:47:30;17.23;;;9.43;;
48524;SDS011;34316;51.514;-0.178;2023-04-29T00:49:32;15.88;;;9.00;;
48524;SDS011;34316;51.514;-0.178;2023-04-29T00:51:34;17.98;;;9.88;;
48524;SDS011;34316;51.514;-0.178;2023-04-29T00:53:37;16.35;;;9.30;;
48524;SDS011;34316;51.514;-0.178;2023-04-29T00:55:39;14.52;;;8.43;;
48524;SDS011;34316;51.514;-0.178;2023-04-29T00:57:42;17.80;;;9.18;;
48524;SDS011;34316;51.514;-0.178;2023-04-29T00:59:43;17.00;;;8.77;;
48524;SDS011;34316;51.514;-0.178;2023-04-29T01:01:46;16.05;;;7.85;;
48524;SDS011;34316;51.514;-0.178;2023-04-29T01:03:47;17.15;;;9.02;;
48524;SDS011;34316;51.514;-0.178;2023-04-29T01:05:53;14.38;;;9.32;;
48524;SDS011;34316;51.514;-0.178;2023-04-29T01:10:26;13.75;;;8.50;;
48524;SDS011;34316;51.514;-0.178;2023-04-29T01:12:36;14.77;;;8.75;;
48524;SDS011;34316;51.514;-0.178;2023-04-29T01:14:42;13.02;;;8.73;;
48524;SDS011;34316;51.514;-0.178;2023-04-29T01:16:50;13.02;;;8.18;;
48524;SDS011;34316;51.514;-0.178;2023-04-29T01:18:53;16.73;;;8.52;;
48524;SDS011;34316;51.514;-0.178;2023-04-29T01:20:56;17.92;;;8.43;;
48524;SDS011;34316;51.514;-0.178;2023-04-29T01:22:59;13.63;;;8.55;;
48524;SDS011;34316;51.514;-0.178;2023-04-29T01:25:00;13.48;;;7.38;;
48524;SDS011;34316;51.514;-0.178;2023-04-29T01:29:48;17.92;;;7.57;;
48524;SDS011;34316;51.514;-0.178;2023-04-29T01:31:57;14.27;;;7.60;;
48524;SDS011;34316;51.514;-0.178;2023-04-29T01:34:09;11.43;;;6.90;;
48524;SDS011;34316;51.514;-0.178;2023-04-29T01:36:32;13.95;;;6.63;;
48524;SDS011;34316;51.514;-0.178;2023-04-29T01:38:46;12.15;;;6.47;;
48524;SDS011;34316;51.514;-0.178;2023-04-29T01:41:08;10.88;;;6.55;;
48524;SDS011;34316;51.514;-0.178;2023-04-29T01:43:11;9.90;;;6.43;;
48524;SDS011;34316;51.514;-0.178;2023-04-29T01:45:15;11.80;;;7.30;;
48524;SDS011;34316;51.514;-0.178;2023-04-29T01:47:21;11.32;;;6.50;;
48524;SDS011;34316;51.514;-0.178;2023-04-29T01:49:24;10.25;;;6.20;;
48524;SDS011;34316;51.514;-0.178;2023-04-29T01:51:26;13.38;;;6.50;;
48524;SDS011;34316;51.514;-0.178;2023-04-29T01:53:28;11.13;;;5.82;;
48524;SDS011;34316;51.514;-0.178;2023-04-29T01:55:30;9.85;;;6.10;;
48524;SDS011;34316;51.514;-0.178;2023-04-29T01:57:31;13.63;;;6.10;;
48524;SDS011;34316;51.514;-0.178;2023-04-29T01:59:34;9.52;;;6.10;;
48524;SDS011;34316;51.514;-0.178;2023-04-29T02:01:36;11.57;;;6.40;;
48524;SDS011;34316;51.514;-0.178;2023-04-29T02:03:38;9.60;;;6.15;;
48524;SDS011;34316;51.514;-0.178;2023-04-29T02:05:40;17.20;;;6.10;;
48524;SDS011;34316;51.514;-0.178;2023-04-29T02:07:43;10.57;;;6.35;;
48524;SDS011;34316;51.514;-0.178;2023-04-29T02:09:44;10.45;;;6.60;;
48524;SDS011;34316;51.514;-0.178;2023-04-29T02:11:46;9.70;;;5.70;;
48524;SDS011;34316;51.514;-0.178;2023-04-29T02:13:48;9.43;;;6.32;;
48524;SDS011;34316;51.514;-0.178;2023-04-29T02:15:49;10.35;;;6.10;;
48524;SDS011;34316;51.514;-0.178;2023-04-29T02:17:51;12.90;;;6.50;;
48524;SDS011;34316;51.514;-0.178;2023-04-29T02:19:53;9.45;;;6.47;;
48524;SDS011;34316;51.514;-0.178;2023-04-29T02:21:57;12.13;;;6.30;;
48524;SDS011;34316;51.514;-0.178;2023-04-29T02:23:58;11.55;;;6.78;;
48524;SDS011;34316;51.514;-0.178;2023-04-29T02:26:00;11.55;;;6.10;;
48524;SDS011;34316;51.514;-0.178;2023-04-29T02:28:02;15.68;;;6.93;;
48524;SDS011;34316;51.514;-0.178;2023-04-29T02:30:04;14.35;;;7.25;;
48524;SDS011;34316;51.514;-0.178;2023-04-29T02:32:06;12.60;;;6.95;;
48524;SDS011;34316;51.514;-0.178;2023-04-29T02:34:07;8.95;;;6.63;;
48524;SDS011;34316;51.514;-0.178;2023-04-29T02:36:09;12.88;;;8.55;;
48524;SDS011;34316;51.514;-0.178;2023-04-29T02:38:11;13.35;;;7.50;;
48524;SDS011;34316;51.514;-0.178;2023-04-29T02:40:13;13.82;;;7.72;;
48524;SDS011;34316;51.514;-0.178;2023-04-29T02:42:14;14.35;;;7.75;;
48524;SDS011;34316;51.514;-0.178;2023-04-29T02:44:16;13.13;;;8.07;;
48524;SDS011;34316;51.514;-0.178;2023-04-29T02:46:18;13.50;;;7.18;;
48524;SDS011;34316;51.514;-0.178;2023-04-29T02:48:19;13.35;;;7.55;;
48524;SDS011;34316;51.514;-0.178;2023-04-29T02:50:21;14.68;;;7.80;;
48524;SDS011;34316;51.514;-0.178;2023-04-29T02:52:23;11.40;;;7.10;;
48524;SDS011;34316;51.514;-0.178;2023-04-29T02:54:25;13.98;;;7.63;;
48524;SDS011;34316;51.514;-0.178;2023-04-29T02:56:26;15.90;;;7.93;;
48524;SDS011;34316;51.514;-0.178;2023-04-29T02:58:28;11.25;;;7.63;;
48524;SDS011;34316;51.514;-0.178;2023-04-29T03:00:29;13.02;;;7.70;;
48524;SDS011;34316;51.514;-0.178;2023-04-29T03:02:31;11.15;;;7.32;;
48524;SDS011;34316;51.514;-0.178;2023-04-29T03:04:33;10.48;;;7.47;;
48524;SDS011;34316;51.514;-0.178;2023-04-29T03:06:35;15.10;;;8.27;;
48524;SDS011;34316;51.514;-0.178;2023-04-29T03:08:36;10.35;;;7.47;;
48524;SDS011;34316;51.514;-0.178;2023-04-29T03:10:38;12.80;;;7.78;;
48524;SDS011;34316;51.514;-0.178;2023-04-29T03:12:41;11.52;;;8.02;;
48524;SDS011;34316;51.514;-0.178;2023-04-29T03:14:43;13.07;;;7.10;;
48524;SDS011;34316;51.514;-0.178;2023-04-29T03:16:45;15.40;;;7.32;;
48524;SDS011;34316;51.514;-0.178;2023-04-29T03:18:47;10.80;;;7.22;;
48524;SDS011;34316;51.514;-0.178;2023-04-29T03:20:49;14.27;;;7.30;;
48524;SDS011;34316;51.514;-0.178;2023-04-29T03:22:50;11.13;;;7.65;;
48524;SDS011;34316;51.514;-0.178;2023-04-29T03:24:52;10.35;;;6.57;;
48524;SDS011;34316;51.514;-0.178;2023-04-29T03:26:53;12.52;;;7.75;;
48524;SDS011;34316;51.514;-0.178;2023-04-29T03:28:55;12.93;;;7.53;;
48524;SDS011;34316;51.514;-0.178;2023-04-29T03:30:58;13.43;;;7.60;;
48524;SDS011;34316;51.514;-0.178;2023-04-29T03:33:00;10.10;;;7.30;;
48524;SDS011;34316;51.514;-0.178;2023-04-29T03:35:02;14.55;;;7.90;;
48524;SDS011;34316;51.514;-0.178;2023-04-29T03:37:04;14.13;;;9.23;;
48524;SDS011;34316;51.514;-0.178;2023-04-29T03:39:06;12.18;;;8.50;;
48524;SDS011;34316;51.514;-0.178;2023-04-29T03:41:08;15.32;;;9.68;;
48524;SDS011;34316;51.514;-0.178;2023-04-29T03:43:09;16.02;;;9.75;;
48524;SDS011;34316;51.514;-0.178;2023-04-29T03:45:11;18.92;;;9.35;;
48524;SDS011;34316;51.514;-0.178;2023-04-29T03:47:14;15.23;;;8.13;;
48524;SDS011;34316;51.514;-0.178;2023-04-29T03:49:16;14.00;;;9.90;;
48524;SDS011;34316;51.514;-0.178;2023-04-29T03:51:18;18.02;;;10.18;;
48524;SDS011;34316;51.514;-0.178;2023-04-29T03:53:19;20.15;;;9.75;;
48524;SDS011;34316;51.514;-0.178;2023-04-29T03:55:22;14.77;;;9.25;;
48524;SDS011;34316;51.514;-0.178;2023-04-29T03:57:23;19.95;;;9.90;;
48524;SDS011;34316;51.514;-0.178;2023-04-29T03:59:25;15.50;;;10.00;;
48524;SDS011;34316;51.514;-0.178;2023-04-29T04:01:27;16.80;;;10.18;;
48524;SDS011;34316;51.514;-0.178;2023-04-29T04:03:28;13.52;;;9.27;;
48524;SDS011;34316;51.514;-0.178;2023-04-29T04:05:30;13.55;;;9.13;;
48524;SDS011;34316;51.514;-0.178;2023-04-29T04:07:32;17.10;;;8.73;;
48524;SDS011;34316;51.514;-0.178;2023-04-29T04:09:33;14.45;;;8.48;;
48524;SDS011;34316;51.514;-0.178;2023-04-29T04:11:35;18.30;;;8.80;;
48524;SDS011;34316;51.514;-0.178;2023-04-29T04:13:36;14.60;;;9.13;;
48524;SDS011;34316;51.514;-0.178;2023-04-29T04:15:38;17.25;;;8.38;;
48524;SDS011;34316;51.514;-0.178;2023-04-29T04:17:40;14.00;;;8.18;;
48524;SDS011;34316;51.514;-0.178;2023-04-29T04:19:42;16.40;;;7.95;;
48524;SDS011;34316;51.514;-0.178;2023-04-29T04:21:44;16.27;;;8.57;;
48524;SDS011;34316;51.514;-0.178;2023-04-29T04:23:45;18.63;;;8.30;;
48524;SDS011;34316;51.514;-0.178;2023-04-29T04:25:47;14.45;;;8.77;;
48524;SDS011;34316;51.514;-0.178;2023-04-29T04:27:49;16.85;;;8.63;;
48524;SDS011;34316;51.514;-0.178;2023-04-29T04:29:53;15.90;;;8.65;;
48524;SDS011;34316;51.514;-0.178;2023-04-29T04:31:55;18.98;;;9.07;;
48524;SDS011;34316;51.514;-0.178;2023-04-29T04:33:57;13.18;;;9.23;;
48524;SDS011;34316;51.514;-0.178;2023-04-29T04:36:00;18.30;;;9.25;;
48524;SDS011;34316;51.514;-0.178;2023-04-29T04:38:02;13.55;;;9.18;;
48524;SDS011;34316;51.514;-0.178;2023-04-29T04:40:03;15.27;;;9.20;;
48524;SDS011;34316;51.514;-0.178;2023-04-29T04:42:05;16.42;;;10.20;;
48524;SDS011;34316;51.514;-0.178;2023-04-29T04:44:07;17.92;;;10.00;;
48524;SDS011;34316;51.514;-0.178;2023-04-29T04:46:12;18.90;;;10.02;;
48524;SDS011;34316;51.514;-0.178;2023-04-29T04:48:15;18.38;;;11.00;;
48524;SDS011;34316;51.514;-0.178;2023-04-29T04:50:16;27.30;;;11.15;;
48524;SDS011;34316;51.514;-0.178;2023-04-29T04:52:19;17.73;;;10.60;;
48524;SDS011;34316;51.514;-0.178;2023-04-29T04:54:21;17.50;;;11.02;;
48524;SDS011;34316;51.514;-0.178;2023-04-29T04:56:23;21.25;;;10.45;;
48524;SDS011;34316;51.514;-0.178;2023-04-29T04:58:24;19.73;;;10.70;;
48524;SDS011;34316;51.514;-0.178;2023-04-29T05:00:27;25.73;;;10.50;;
48524;SDS011;34316;51.514;-0.178;2023-04-29T05:02:28;14.80;;;9.93;;
48524;SDS011;34316;51.514;-0.178;2023-04-29T05:04:30;16.13;;;9.68;;
48524;SDS011;34316;51.514;-0.178;2023-04-29T05:06:32;24.48;;;10.60;;
48524;SDS011;34316;51.514;-0.178;2023-04-29T05:08:34;16.58;;;9.73;;
48524;SDS011;34316;51.514;-0.178;2023-04-29T05:10:35;22.10;;;10.98;;
48524;SDS011;34316;51.514;-0.178;2023-04-29T05:12:37;19.83;;;10.68;;
48524;SDS011;34316;51.514;-0.178;2023-04-29T05:14:39;19.58;;;10.52;;
48524;SDS011;34316;51.514;-0.178;2023-04-29T05:16:41;20.67;;;10.38;;
48524;SDS011;34316;51.514;-0.178;2023-04-29T05:18:43;16.60;;;9.63;;
48524;SDS011;34316;51.514;-0.178;2023-04-29T05:20:46;13.85;;;9.23;;
48524;SDS011;34316;51.514;-0.178;2023-04-29T05:22:48;15.55;;;9.63;;
48524;SDS011;34316;51.514;-0.178;2023-04-29T05:24:49;14.88;;;9.45;;
48524;SDS011;34316;51.514;-0.178;2023-04-29T05:26:53;14.18;;;8.55;;
48524;SDS011;34316;51.514;-0.178;2023-04-29T05:28:54;11.88;;;7.57;;
48524;SDS011;34316;51.514;-0.178;2023-04-29T05:30:56;12.48;;;7.38;;
48524;SDS011;34316;51.514;-0.178;2023-04-29T05:32:58;13.63;;;8.15;;
48524;SDS011;34316;51.514;-0.178;2023-04-29T05:34:59;12.30;;;7.22;;
48524;SDS011;34316;51.514;-0.178;2023-04-29T05:37:01;10.32;;;7.15;;
48524;SDS011;34316;51.514;-0.178;2023-04-29T05:39:03;10.45;;;6.72;;
48524;SDS011;34316;51.514;-0.178;2023-04-29T05:41:05;11.93;;;8.05;;
48524;SDS011;34316;51.514;-0.178;2023-04-29T05:43:06;10.85;;;7.35;;
48524;SDS011;34316;51.514;-0.178;2023-04-29T05:45:08;14.20;;;7.72;;
48524;SDS011;34316;51.514;-0.178;2023-04-29T05:47:10;11.82;;;6.65;;
48524;SDS011;34316;51.514;-0.178;2023-04-29T05:49:12;10.73;;;6.57;;
48524;SDS011;34316;51.514;-0.178;2023-04-29T05:51:13;12.48;;;6.85;;
48524;SDS011;34316;51.514;-0.178;2023-04-29T05:53:16;14.27;;;7.32;;
48524;SDS011;34316;51.514;-0.178;2023-04-29T05:55:17;19.90;;;10.88;;
48524;SDS011;34316;51.514;-0.178;2023-04-29T05:57:19;18.05;;;10.18;;
48524;SDS011;34316;51.514;-0.178;2023-04-29T05:59:21;21.45;;;10.32;;
48524;SDS011;34316;51.514;-0.178;2023-04-29T06:01:23;13.38;;;8.80;;
48524;SDS011;34316;51.514;-0.178;2023-04-29T06:03:24;16.65;;;10.45;;
48524;SDS011;34316;51.514;-0.178;2023-04-29T06:05:26;15.35;;;10.27;;
48524;SDS011;34316;51.514;-0.178;2023-04-29T06:07:29;17.17;;;10.30;;
48524;SDS011;34316;51.514;-0.178;2023-04-29T06:09:30;18.85;;;10.32;;
48524;SDS011;34316;51.514;-0.178;2023-04-29T06:11:33;17.05;;;10.30;;
48524;SDS011;34316;51.514;-0.178;2023-04-29T06:13:35;24.83;;;10.80;;
48524;SDS011;34316;51.514;-0.178;2023-04-29T06:15:36;20.13;;;9.07;;
48524;SDS011;34316;51.514;-0.178;2023-04-29T06:17:38;16.52;;;8.82;;
48524;SDS011;34316;51.514;-0.178;2023-04-29T06:19:40;13.93;;;9.10;;
48524;SDS011;34316;51.514;-0.178;2023-04-29T06:21:42;19.45;;;8.57;;
48524;SDS011;34316;51.514;-0.178;2023-04-29T06:23:43;11.45;;;8.50;;
48524;SDS011;34316;51.514;-0.178;2023-04-29T06:25:45;18.10;;;10.00;;
48524;SDS011;34316;51.514;-0.178;2023-04-29T06:27:47;15.80;;;9.18;;
48524;SDS011;34316;51.514;-0.178;2023-04-29T06:29:49;16.77;;;10.57;;
48524;SDS011;34316;51.514;-0.178;2023-04-29T06:31:51;15.88;;;10.45;;
48524;SDS011;34316;51.514;-0.178;2023-04-29T06:33:54;16.63;;;10.45;;
48524;SDS011;34316;51.514;-0.178;2023-04-29T06:35:56;16.52;;;10.00;;
48524;SDS011;34316;51.514;-0.178;2023-04-29T06:37:58;20.20;;;10.38;;
48524;SDS011;34316;51.514;-0.178;2023-04-29T06:39:59;16.27;;;8.98;;
48524;SDS011;34316;51.514;-0.178;2023-04-29T06:42:01;17.08;;;9.90;;
48524;SDS011;34316;51.514;-0.178;2023-04-29T06:44:03;20.58;;;11.20;;
48524;SDS011;34316;51.514;-0.178;2023-04-29T06:46:05;17.20;;;10.98;;
48524;SDS011;34316;51.514;-0.178;2023-04-29T06:48:07;20.83;;;11.75;;
48524;SDS011;34316;51.514;-0.178;2023-04-29T06:50:09;20.88;;;11.27;;
48524;SDS011;34316;51.514;-0.178;2023-04-29T06:52:11;16.88;;;10.85;;
48524;SDS011;34316;51.514;-0.178;2023-04-29T06:54:12;19.33;;;10.60;;
48524;SDS011;34316;51.514;-0.178;2023-04-29T06:56:14;19.90;;;10.80;;
48524;SDS011;34316;51.514;-0.178;2023-04-29T06:58:17;16.10;;;9.97;;
48524;SDS011;34316;51.514;-0.178;2023-04-29T07:00:19;15.00;;;10.05;;
48524;SDS011;34316;51.514;-0.178;2023-04-29T07:02:23;16.77;;;9.65;;
48524;SDS011;34316;51.514;-0.178;2023-04-29T07:04:24;14.43;;;9.98;;
48524;SDS011;34316;51.514;-0.178;2023-04-29T07:06:26;16.60;;;9.10;;
48524;SDS011;34316;51.514;-0.178;2023-04-29T07:08:28;19.08;;;8.85;;
48524;SDS011;34316;51.514;-0.178;2023-04-29T07:10:29;14.05;;;8.30;;
48524;SDS011;34316;51.514;-0.178;2023-04-29T07:12:31;17.70;;;8.95;;
48524;SDS011;34316;51.514;-0.178;2023-04-29T07:14:32;13.98;;;8.18;;
48524;SDS011;34316;51.514;-0.178;2023-04-29T07:16:34;16.02;;;8.18;;
48524;SDS011;34316;51.514;-0.178;2023-04-29T07:18:36;15.82;;;8.60;;
48524;SDS011;34316;51.514;-0.178;2023-04-29T07:20:38;18.92;;;8.60;;
48524;SDS011;34316;51.514;-0.178;2023-04-29T07:22:39;18.20;;;8.90;;
48524;SDS011;34316;51.514;-0.178;2023-04-29T07:24:41;12.68;;;8.35;;
48524;SDS011;34316;51.514;-0.178;2023-04-29T07:26:43;15.52;;;9.23;;
48524;SDS011;34316;51.514;-0.178;2023-04-29T07:28:47;15.27;;;9.10;;
48524;SDS011;34316;51.514;-0.178;2023-04-29T07:30:52;19.05;;;10.57;;
48524;SDS011;34316;51.514;-0.178;2023-04-29T07:32:54;17.25;;;10.55;;
48524;SDS011;34316;51.514;-0.178;2023-04-29T07:34:55;20.70;;;10.30;;
48524;SDS011;34316;51.514;-0.178;2023-04-29T07:36:57;17.08;;;9.80;;
48524;SDS011;34316;51.514;-0.178;2023-04-29T07:38:59;16.20;;;10.48;;
48524;SDS011;34316;51.514;-0.178;2023-04-29T07:41:00;19.05;;;9.02;;
48524;SDS011;34316;51.514;-0.178;2023-04-29T07:43:03;15.27;;;9.98;;
48524;SDS011;34316;51.514;-0.178;2023-04-29T07:45:07;16.55;;;9.57;;
48524;SDS011;34316;51.514;-0.178;2023-04-29T07:47:09;16.02;;;9.50;;
48524;SDS011;34316;51.514;-0.178;2023-04-29T07:49:10;13.13;;;7.72;;
48524;SDS011;34316;51.514;-0.178;2023-04-29T07:51:13;12.05;;;7.82;;
48524;SDS011;34316;51.514;-0.178;2023-04-29T07:53:15;14.15;;;8.43;;
48524;SDS011;34316;51.514;-0.178;2023-04-29T07:55:17;27.65;;;13.00;;
48524;SDS011;34316;51.514;-0.178;2023-04-29T07:57:19;13.82;;;8.60;;
48524;SDS011;34316;51.514;-0.178;2023-04-29T07:59:20;11.77;;;7.60;;
48524;SDS011;34316;51.514;-0.178;2023-04-29T08:01:22;14.77;;;6.53;;
48524;SDS011;34316;51.514;-0.178;2023-04-29T08:03:24;10.57;;;6.43;;
48524;SDS011;34316;51.514;-0.178;2023-04-29T08:07:31;13.90;;;6.78;;
48524;SDS011;34316;51.514;-0.178;2023-04-29T08:09:32;13.07;;;7.28;;
48524;SDS011;34316;51.514;-0.178;2023-04-29T08:11:34;12.55;;;7.10;;
48524;SDS011;34316;51.514;-0.178;2023-04-29T08:13:36;16.00;;;7.18;;
48524;SDS011;34316;51.514;-0.178;2023-04-29T08:15:37;60.08;;;39.95;;
48524;SDS011;34316;51.514;-0.178;2023-04-29T08:17:39;15.55;;;8.73;;
48524;SDS011;34316;51.514;-0.178;2023-04-29T08:19:41;10.02;;;6.97;;
48524;SDS011;34316;51.514;-0.178;2023-04-29T08:21:43;11.65;;;6.97;;
48524;SDS011;34316;51.514;-0.178;2023-04-29T08:23:44;11.05;;;7.03;;
48524;SDS011;34316;51.514;-0.178;2023-04-29T08:25:46;11.00;;;7.18;;
48524;SDS011;34316;51.514;-0.178;2023-04-29T08:27:48;16.13;;;7.82;;
48524;SDS011;34316;51.514;-0.178;2023-04-29T08:29:49;10.75;;;7.70;;
48524;SDS011;34316;51.514;-0.178;2023-04-29T08:31:51;12.73;;;6.70;;
48524;SDS011;34316;51.514;-0.178;2023-04-29T08:33:53;12.90;;;7.03;;
48524;SDS011;34316;51.514;-0.178;2023-04-29T08:35:58;10.65;;;6.72;;
48524;SDS011;34316;51.514;-0.178;2023-04-29T08:38:04;10.38;;;6.47;;
48524;SDS011;34316;51.514;-0.178;2023-04-29T08:40:07;9.75;;;6.53;;
48524;SDS011;34316;51.514;-0.178;2023-04-29T08:42:09;21.42;;;7.10;;
48524;SDS011;34316;51.514;-0.178;2023-04-29T08:44:11;13.85;;;6.55;;
48524;SDS011;34316;51.514;-0.178;2023-04-29T08:46:12;8.63;;;6.93;;
48524;SDS011;34316;51.514;-0.178;2023-04-29T08:48:15;13.65;;;6.97;;
48524;SDS011;34316;51.514;-0.178;2023-04-29T08:50:17;11.38;;;6.53;;
48524;SDS011;34316;51.514;-0.178;2023-04-29T08:52:19;8.40;;;6.57;;
48524;SDS011;34316;51.514;-0.178;2023-04-29T08:54:21;10.05;;;6.13;;
48524;SDS011;34316;51.514;-0.178;2023-04-29T08:56:22;13.13;;;6.53;;
48524;SDS011;34316;51.514;-0.178;2023-04-29T08:58:27;12.07;;;7.30;;
48524;SDS011;34316;51.514;-0.178;2023-04-29T09:00:29;12.63;;;6.55;;
48524;SDS011;34316;51.514;-0.178;2023-04-29T09:02:32;9.38;;;6.43;;
48524;SDS011;34316;51.514;-0.178;2023-04-29T09:04:46;10.60;;;6.45;;
48524;SDS011;34316;51.514;-0.178;2023-04-29T09:06:51;9.35;;;6.03;;
48524;SDS011;34316;51.514;-0.178;2023-04-29T09:08:54;9.10;;;6.07;;
48524;SDS011;34316;51.514;-0.178;2023-04-29T09:10:55;10.55;;;7.03;;
48524;SDS011;34316;51.514;-0.178;2023-04-29T09:12:57;10.55;;;6.65;;
48524;SDS011;34316;51.514;-0.178;2023-04-29T09:20:54;9.52;;;6.15;;
48524;SDS011;34316;51.514;-0.178;2023-04-29T09:23:00;7.97;;;5.72;;
48524;SDS011;34316;51.514;-0.178;2023-04-29T09:25:13;8.82;;;5.90;;
48524;SDS011;34316;51.514;-0.178;2023-04-29T09:27:27;13.68;;;6.78;;
48524;SDS011;34316;51.514;-0.178;2023-04-29T09:29:31;12.60;;;6.38;;
48524;SDS011;34316;51.514;-0.178;2023-04-29T09:31:35;9.77;;;6.25;;
48524;SDS011;34316;51.514;-0.178;2023-04-29T09:33:53;10.60;;;7.10;;
48524;SDS011;34316;51.514;-0.178;2023-04-29T09:35:57;11.57;;;6.50;;
48524;SDS011;34316;51.514;-0.178;2023-04-29T09:38:15;14.48;;;6.43;;
48524;SDS011;34316;51.514;-0.178;2023-04-29T09:42:40;16.55;;;7.63;;
48524;SDS011;34316;51.514;-0.178;2023-04-29T09:44:43;14.50;;;7.72;;
48524;SDS011;34316;51.514;-0.178;2023-04-29T09:47:04;10.80;;;7.10;;
48524;SDS011;34316;51.514;-0.178;2023-04-29T09:49:26;14.18;;;7.53;;
48524;SDS011;34316;51.514;-0.178;2023-04-29T09:51:33;12.98;;;8.10;;
48524;SDS011;34316;51.514;-0.178;2023-04-29T09:53:45;16.13;;;7.70;;
48524;SDS011;34316;51.514;-0.178;2023-04-29T09:57:54;12.57;;;6.75;;
48524;SDS011;34316;51.514;-0.178;2023-04-29T09:59:56;12.00;;;6.38;;
48524;SDS011;34316;51.514;-0.178;2023-04-29T10:01:58;9.13;;;6.47;;
48524;SDS011;34316;51.514;-0.178;2023-04-29T10:04:00;19.92;;;11.70;;
48524;SDS011;34316;51.514;-0.178;2023-04-29T10:06:21;10.50;;;6.90;;
48524;SDS011;34316;51.514;-0.178;2023-04-29T10:08:23;10.95;;;6.05;;
48524;SDS011;34316;51.514;-0.178;2023-04-29T10:10:26;11.27;;;5.85;;
48524;SDS011;34316;51.514;-0.178;2023-04-29T10:12:30;10.82;;;5.82;;
48524;SDS011;34316;51.514;-0.178;2023-04-29T10:14:38;11.27;;;5.72;;
48524;SDS011;34316;51.514;-0.178;2023-04-29T10:18:53;11.05;;;6.07;;
48524;SDS011;34316;51.514;-0.178;2023-04-29T10:20:56;11.40;;;6.75;;
48524;SDS011;34316;51.514;-0.178;2023-04-29T10:25:02;11.98;;;5.78;;
48524;SDS011;34316;51.514;-0.178;2023-04-29T10:27:07;10.10;;;5.78;;
48524;SDS011;34316;51.514;-0.178;2023-04-29T10:29:12;10.95;;;4.85;;
48524;SDS011;34316;51.514;-0.178;2023-04-29T10:31:15;7.13;;;4.55;;
48524;SDS011;34316;51.514;-0.178;2023-04-29T10:33:18;8.50;;;4.35;;
48524;SDS011;34316;51.514;-0.178;2023-04-29T10:35:20;9.23;;;4.53;;
48524;SDS011;34316;51.514;-0.178;2023-04-29T10:37:26;8.75;;;4.05;;
48524;SDS011;34316;51.514;-0.178;2023-04-29T10:41:52;11.95;;;4.80;;
48524;SDS011;34316;51.514;-0.178;2023-04-29T10:43:54;10.93;;;5.70;;
48524;SDS011;34316;51.514;-0.178;2023-04-29T10:46:15;11.93;;;5.25;;
48524;SDS011;34316;51.514;-0.178;2023-04-29T10:48:17;8.45;;;4.07;;
48524;SDS011;34316;51.514;-0.178;2023-04-29T10:50:22;16.45;;;4.78;;
48524;SDS011;34316;51.514;-0.178;2023-04-29T10:52:23;8.13;;;4.15;;
48524;SDS011;34316;51.514;-0.178;2023-04-29T10:54:25;10.85;;;4.57;;
48524;SDS011;34316;51.514;-0.178;2023-04-29T10:56:34;10.40;;;4.05;;
48524;SDS011;34316;51.514;-0.178;2023-04-29T11:00:44;5.45;;;3.30;;
48524;SDS011;34316;51.514;-0.178;2023-04-29T11:03:04;10.02;;;3.70;;
48524;SDS011;34316;51.514;-0.178;2023-04-29T11:05:07;7.60;;;2.78;;
48524;SDS011;34316;51.514;-0.178;2023-04-29T11:07:10;9.52;;;3.78;;
48524;SDS011;34316;51.514;-0.178;2023-04-29T11:09:28;6.30;;;3.58;;
48524;SDS011;34316;51.514;-0.178;2023-04-29T11:13:45;7.88;;;3.42;;
48524;SDS011;34316;51.514;-0.178;2023-04-29T11:15:49;5.13;;;2.80;;
48524;SDS011;34316;51.514;-0.178;2023-04-29T11:19:53;7.95;;;3.05;;
48524;SDS011;34316;51.514;-0.178;2023-04-29T11:22:10;4.95;;;2.83;;
48524;SDS011;34316;51.514;-0.178;2023-04-29T11:24:12;7.05;;;3.00;;
48524;SDS011;34316;51.514;-0.178;2023-04-29T11:26:19;5.75;;;3.38;;
48524;SDS011;34316;51.514;-0.178;2023-04-29T11:28:22;2.92;;;1.98;;
48524;SDS011;34316;51.514;-0.178;2023-04-29T11:30:24;6.13;;;2.45;;
48524;SDS011;34316;51.514;-0.178;2023-04-29T11:32:27;8.48;;;2.80;;
48524;SDS011;34316;51.514;-0.178;2023-04-29T11:36:31;3.70;;;2.03;;
48524;SDS011;34316;51.514;-0.178;2023-04-29T11:38:33;6.90;;;3.47;;
48524;SDS011;34316;51.514;-0.178;2023-04-29T11:40:40;8.70;;;2.78;;
48524;SDS011;34316;51.514;-0.178;2023-04-29T11:42:43;8.05;;;3.65;;
48524;SDS011;34316;51.514;-0.178;2023-04-29T11:44:45;4.97;;;2.67;;
48524;SDS011;34316;51.514;-0.178;2023-04-29T11:46:47;5.72;;;3.03;;
48524;SDS011;34316;51.514;-0.178;2023-04-29T11:48:49;6.13;;;2.85;;
48524;SDS011;34316;51.514;-0.178;2023-04-29T11:50:53;3.95;;;2.45;;
48524;SDS011;34316;51.514;-0.178;2023-04-29T11:52:58;6.00;;;2.78;;
48524;SDS011;34316;51.514;-0.178;2023-04-29T11:54:59;7.20;;;2.40;;
48524;SDS011;34316;51.514;-0.178;2023-04-29T11:57:01;6.22;;;2.53;;
48524;SDS011;34316;51.514;-0.178;2023-04-29T12:01:08;7.43;;;2.35;;
48524;SDS011;34316;51.514;-0.178;2023-04-29T12:03:13;7.63;;;2.30;;
48524;SDS011;34316;51.514;-0.178;2023-04-29T12:05:16;4.65;;;2.40;;
48524;SDS011;34316;51.514;-0.178;2023-04-29T12:07:19;3.17;;;2.10;;
48524;SDS011;34316;51.514;-0.178;2023-04-29T12:09:22;5.10;;;2.20;;
48524;SDS011;34316;51.514;-0.178;2023-04-29T12:11:23;4.38;;;1.95;;
48524;SDS011;34316;51.514;-0.178;2023-04-29T12:13:28;7.28;;;2.85;;
48524;SDS011;34316;51.514;-0.178;2023-04-29T12:15:30;6.22;;;1.80;;
48524;SDS011;34316;51.514;-0.178;2023-04-29T12:17:32;4.32;;;1.58;;
48524;SDS011;34316;51.514;-0.178;2023-04-29T12:19:34;7.07;;;2.00;;
48524;SDS011;34316;51.514;-0.178;2023-04-29T12:21:46;4.20;;;1.80;;
48524;SDS011;34316;51.514;-0.178;2023-04-29T12:23:49;5.50;;;2.45;;
48524;SDS011;34316;51.514;-0.178;2023-04-29T12:25:55;3.78;;;2.05;;
48524;SDS011;34316;51.514;-0.178;2023-04-29T12:27:58;5.07;;;2.60;;
48524;SDS011;34316;51.514;-0.178;2023-04-29T12:30:00;5.13;;;2.13;;
48524;SDS011;34316;51.514;-0.178;2023-04-29T12:32:02;7.05;;;2.45;;
48524;SDS011;34316;51.514;-0.178;2023-04-29T12:34:03;4.85;;;1.73;;
48524;SDS011;34316;51.514;-0.178;2023-04-29T12:36:16;5.18;;;1.73;;